aviador You're here:

K2DP Decoded Metar

STUMPY POINT in NC, USA
Report Time2017-11-23 19:56:00
UTC Time2017-11-23 20:31:28
Flight Rules vfr VFR
Wind020° at 10 kt
W.Rank020° ranks 4
Current wind is above 020° avg. (8.0)
Visibility9999 m
Phenomena:N/A
Clouds:Broken 160 Hf
Expected CloudBase > 2,000 ft AGL from Temp-Dew spread
Ceiling16,000 ft
Temp08°C (ISA -7)
Dew Point03°C (71% RH)
AAT2.9°C
QNH1018 hPa
Density Alt-896 ft
Elevation10 ft
Report Wrong Elevation
Raw Report
K2DP 231956Z AUTO 02010KT 10SM BKN160 08/03 A3007 RMK AO2 SLPNO
T00820029 $=

Extra information for K2DP:More info

Metar Taf Metar & Taf Last 4 Metars F.Rules Stats Wind Profile Meteogram Temp Stats Airport Information Weather charts Add Link Nearby VenuesMetar ALERT Operation Metar Decoded Social comments

AIRNAV info for K2DP